sensor_id;sensor_type;location;lat;lon;timestamp;P1;durP1;ratioP1;P2;durP2;ratioP2
15814;SDS011;8008;50.024;8.172;2023-05-10T03:00:37;0.70;;;0.70;;
15814;SDS011;8008;50.024;8.172;2023-05-10T03:03:06;2.08;;;0.80;;
15814;SDS011;8008;50.024;8.172;2023-05-10T03:05:34;0.70;;;0.70;;
15814;SDS011;8008;50.024;8.172;2023-05-10T03:08:04;1.08;;;0.70;;
15814;SDS011;8008;50.024;8.172;2023-05-10T03:10:33;1.67;;;0.80;;
15814;SDS011;8008;50.024;8.172;2023-05-10T03:13:10;0.70;;;0.70;;
15814;SDS011;8008;50.024;8.172;2023-05-10T03:15:51;3.17;;;0.85;;
15814;SDS011;8008;50.024;8.172;2023-05-10T03:18:28;0.80;;;0.80;;
15814;SDS011;8008;50.024;8.172;2023-05-10T03:21:02;0.90;;;0.63;;
15814;SDS011;8008;50.024;8.172;2023-05-10T03:23:34;1.67;;;0.73;;
15814;SDS011;8008;50.024;8.172;2023-05-10T03:26:03;0.85;;;0.60;;
15814;SDS011;8008;50.024;8.172;2023-05-10T03:28:32;1.95;;;0.70;;
15814;SDS011;8008;50.024;8.172;2023-05-10T03:31:04;0.85;;;0.65;;
15814;SDS011;8008;50.024;8.172;2023-05-10T03:33:33;1.42;;;0.75;;
15814;SDS011;8008;50.024;8.172;2023-05-10T03:36:02;1.38;;;0.60;;
15814;SDS011;8008;50.024;8.172;2023-05-10T03:38:30;0.80;;;0.80;;
15814;SDS011;8008;50.024;8.172;2023-05-10T03:40:58;1.23;;;0.80;;
15814;SDS011;8008;50.024;8.172;2023-05-10T03:43:26;2.28;;;0.98;;
15814;SDS011;8008;50.024;8.172;2023-05-10T03:45:54;2.35;;;1.10;;
15814;SDS011;8008;50.024;8.172;2023-05-10T03:48:23;4.18;;;1.00;;
15814;SDS011;8008;50.024;8.172;2023-05-10T03:50:52;0.98;;;0.88;;
15814;SDS011;8008;50.024;8.172;2023-05-10T03:53:20;1.33;;;0.88;;
15814;SDS011;8008;50.024;8.172;2023-05-10T03:55:49;0.70;;;0.70;;
15814;SDS011;8008;50.024;8.172;2023-05-10T03:58:17;0.90;;;0.90;;
15814;SDS011;8008;50.024;8.172;2023-05-10T04:00:45;1.45;;;1.00;;
15814;SDS011;8008;50.024;8.172;2023-05-10T04:03:13;0.73;;;0.73;;
15814;SDS011;8008;50.024;8.172;2023-05-10T04:05:43;2.92;;;1.10;;
15814;SDS011;8008;50.024;8.172;2023-05-10T04:08:11;4.53;;;0.90;;
15814;SDS011;8008;50.024;8.172;2023-05-10T04:10:39;1.05;;;1.05;;
15814;SDS011;8008;50.024;8.172;2023-05-10T04:13:06;1.27;;;1.05;;
15814;SDS011;8008;50.024;8.172;2023-05-10T04:15:34;1.13;;;1.02;;
15814;SDS011;8008;50.024;8.172;2023-05-10T04:18:02;2.95;;;1.10;;
15814;SDS011;8008;50.024;8.172;2023-05-10T04:20:33;2.88;;;1.10;;
15814;SDS011;8008;50.024;8.172;2023-05-10T04:23:03;1.00;;;1.00;;
15814;SDS011;8008;50.024;8.172;2023-05-10T04:25:33;2.30;;;1.05;;
15814;SDS011;8008;50.024;8.172;2023-05-10T04:28:01;1.10;;;1.10;;
15814;SDS011;8008;50.024;8.172;2023-05-10T04:30:29;2.70;;;1.10;;
15814;SDS011;8008;50.024;8.172;2023-05-10T04:32:57;2.30;;;1.00;;
15814;SDS011;8008;50.024;8.172;2023-05-10T04:35:25;1.30;;;1.20;;
15814;SDS011;8008;50.024;8.172;2023-05-10T04:37:53;1.00;;;1.00;;
15814;SDS011;8008;50.024;8.172;2023-05-10T04:40:22;1.10;;;1.08;;
15814;SDS011;8008;50.024;8.172;2023-05-10T04:42:50;1.45;;;1.33;;
15814;SDS011;8008;50.024;8.172;2023-05-10T04:45:18;2.05;;;1.50;;
15814;SDS011;8008;50.024;8.172;2023-05-10T04:47:46;1.60;;;1.50;;
15814;SDS011;8008;50.024;8.172;2023-05-10T04:50:14;3.65;;;1.88;;
15814;SDS011;8008;50.024;8.172;2023-05-10T04:52:42;7.53;;;1.50;;
15814;SDS011;8008;50.024;8.172;2023-05-10T04:55:10;1.60;;;1.50;;
15814;SDS011;8008;50.024;8.172;2023-05-10T04:57:39;1.35;;;1.25;;
15814;SDS011;8008;50.024;8.172;2023-05-10T05:00:07;1.30;;;1.20;;
15814;SDS011;8008;50.024;8.172;2023-05-10T05:02:36;1.20;;;1.10;;
15814;SDS011;8008;50.024;8.172;2023-05-10T05:05:05;1.50;;;1.40;;
15814;SDS011;8008;50.024;8.172;2023-05-10T05:07:33;1.27;;;1.20;;
15814;SDS011;8008;50.024;8.172;2023-05-10T05:10:01;1.40;;;1.30;;
15814;SDS011;8008;50.024;8.172;2023-05-10T05:12:29;2.50;;;1.73;;
15814;SDS011;8008;50.024;8.172;2023-05-10T05:14:58;2.53;;;1.55;;
15814;SDS011;8008;50.024;8.172;2023-05-10T05:17:26;3.50;;;1.45;;
15814;SDS011;8008;50.024;8.172;2023-05-10T05:19:54;3.40;;;1.48;;
15814;SDS011;8008;50.024;8.172;2023-05-10T05:22:22;2.53;;;1.65;;
15814;SDS011;8008;50.024;8.172;2023-05-10T05:24:53;1.73;;;1.45;;
15814;SDS011;8008;50.024;8.172;2023-05-10T05:27:22;2.33;;;1.88;;
15814;SDS011;8008;50.024;8.172;2023-05-10T05:29:52;3.80;;;1.80;;
15814;SDS011;8008;50.024;8.172;2023-05-10T05:32:21;6.72;;;1.65;;
15814;SDS011;8008;50.024;8.172;2023-05-10T05:34:49;2.53;;;1.80;;
15814;SDS011;8008;50.024;8.172;2023-05-10T05:37:18;2.92;;;1.80;;
15814;SDS011;8008;50.024;8.172;2023-05-10T05:39:47;3.03;;;1.98;;
15814;SDS011;8008;50.024;8.172;2023-05-10T05:42:15;6.03;;;2.22;;
15814;SDS011;8008;50.024;8.172;2023-05-10T05:44:45;3.05;;;1.80;;
15814;SDS011;8008;50.024;8.172;2023-05-10T05:47:13;3.75;;;2.17;;
15814;SDS011;8008;50.024;8.172;2023-05-10T05:49:42;4.35;;;2.10;;
15814;SDS011;8008;50.024;8.172;2023-05-10T05:52:11;4.05;;;2.10;;
15814;SDS011;8008;50.024;8.172;2023-05-10T05:54:39;4.70;;;2.30;;
15814;SDS011;8008;50.024;8.172;2023-05-10T05:57:07;2.85;;;2.10;;
15814;SDS011;8008;50.024;8.172;2023-05-10T05:59:35;2.22;;;1.90;;
15814;SDS011;8008;50.024;8.172;2023-05-10T06:02:08;2.42;;;2.10;;
15814;SDS011;8008;50.024;8.172;2023-05-10T06:04:35;5.43;;;2.10;;
15814;SDS011;8008;50.024;8.172;2023-05-10T06:07:05;5.93;;;2.30;;
15814;SDS011;8008;50.024;8.172;2023-05-10T06:09:34;6.78;;;2.30;;
15814;SDS011;8008;50.024;8.172;2023-05-10T06:12:01;3.72;;;2.20;;
15814;SDS011;8008;50.024;8.172;2023-05-10T06:14:29;5.65;;;2.05;;
15814;SDS011;8008;50.024;8.172;2023-05-10T06:16:57;3.45;;;1.80;;
15814;SDS011;8008;50.024;8.172;2023-05-10T06:19:26;4.30;;;2.10;;
15814;SDS011;8008;50.024;8.172;2023-05-10T06:21:54;2.53;;;2.00;;
15814;SDS011;8008;50.024;8.172;2023-05-10T06:24:23;2.80;;;2.20;;
15814;SDS011;8008;50.024;8.172;2023-05-10T06:26:51;3.03;;;2.20;;
15814;SDS011;8008;50.024;8.172;2023-05-10T06:29:19;3.65;;;2.30;;
15814;SDS011;8008;50.024;8.172;2023-05-10T06:31:47;2.35;;;1.77;;
15814;SDS011;8008;50.024;8.172;2023-05-10T06:34:15;4.72;;;2.03;;
15814;SDS011;8008;50.024;8.172;2023-05-10T06:36:43;2.00;;;1.80;;
15814;SDS011;8008;50.024;8.172;2023-05-10T06:39:11;3.95;;;1.98;;
15814;SDS011;8008;50.024;8.172;2023-05-10T06:41:40;3.60;;;1.92;;
15814;SDS011;8008;50.024;8.172;2023-05-10T06:44:08;4.03;;;2.15;;
15814;SDS011;8008;50.024;8.172;2023-05-10T06:46:36;3.90;;;2.20;;
15814;SDS011;8008;50.024;8.172;2023-05-10T06:49:04;5.68;;;2.25;;
15814;SDS011;8008;50.024;8.172;2023-05-10T06:51:31;4.32;;;2.35;;
15814;SDS011;8008;50.024;8.172;2023-05-10T06:54:00;7.05;;;2.17;;
15814;SDS011;8008;50.024;8.172;2023-05-10T06:56:28;4.28;;;2.38;;
15814;SDS011;8008;50.024;8.172;2023-05-10T06:58:57;3.55;;;1.90;;
15814;SDS011;8008;50.024;8.172;2023-05-10T07:01:25;4.13;;;2.30;;
15814;SDS011;8008;50.024;8.172;2023-05-10T07:03:53;2.90;;;2.10;;
15814;SDS011;8008;50.024;8.172;2023-05-10T07:06:21;2.38;;;2.00;;
15814;SDS011;8008;50.024;8.172;2023-05-10T07:08:59;2.53;;;1.90;;
15814;SDS011;8008;50.024;8.172;2023-05-10T07:11:27;2.65;;;1.80;;
15814;SDS011;8008;50.024;8.172;2023-05-10T07:13:56;4.88;;;2.00;;
15814;SDS011;8008;50.024;8.172;2023-05-10T07:16:24;6.03;;;1.92;;
15814;SDS011;8008;50.024;8.172;2023-05-10T07:18:52;2.97;;;1.80;;
15814;SDS011;8008;50.024;8.172;2023-05-10T07:21:20;3.80;;;1.80;;
15814;SDS011;8008;50.024;8.172;2023-05-10T07:23:50;1.73;;;1.60;;
15814;SDS011;8008;50.024;8.172;2023-05-10T07:26:18;3.28;;;1.70;;
15814;SDS011;8008;50.024;8.172;2023-05-10T07:28:47;4.32;;;1.90;;
15814;SDS011;8008;50.024;8.172;2023-05-10T07:31:16;3.55;;;1.85;;
15814;SDS011;8008;50.024;8.172;2023-05-10T07:33:44;3.40;;;1.70;;
15814;SDS011;8008;50.024;8.172;2023-05-10T07:36:12;4.15;;;1.90;;
15814;SDS011;8008;50.024;8.172;2023-05-10T07:38:39;2.75;;;1.65;;
15814;SDS011;8008;50.024;8.172;2023-05-10T07:41:07;2.75;;;1.90;;
15814;SDS011;8008;50.024;8.172;2023-05-10T07:43:35;3.08;;;1.70;;
15814;SDS011;8008;50.024;8.172;2023-05-10T07:46:03;4.68;;;1.80;;
15814;SDS011;8008;50.024;8.172;2023-05-10T07:48:33;3.83;;;2.17;;
15814;SDS011;8008;50.024;8.172;2023-05-10T07:51:00;3.65;;;1.80;;
15814;SDS011;8008;50.024;8.172;2023-05-10T07:53:28;3.35;;;1.65;;
15814;SDS011;8008;50.024;8.172;2023-05-10T07:55:57;2.53;;;1.88;;
15814;SDS011;8008;50.024;8.172;2023-05-10T07:58:25;2.03;;;1.80;;
15814;SDS011;8008;50.024;8.172;2023-05-10T08:00:53;3.67;;;1.77;;
15814;SDS011;8008;50.024;8.172;2023-05-10T08:03:22;2.55;;;1.95;;
15814;SDS011;8008;50.024;8.172;2023-05-10T08:05:51;4.30;;;2.00;;
15814;SDS011;8008;50.024;8.172;2023-05-10T08:08:19;4.25;;;1.88;;
15814;SDS011;8008;50.024;8.172;2023-05-10T08:10:48;8.10;;;1.80;;
15814;SDS011;8008;50.024;8.172;2023-05-10T08:13:16;2.78;;;1.60;;
15814;SDS011;8008;50.024;8.172;2023-05-10T08:15:45;2.63;;;1.80;;
15814;SDS011;8008;50.024;8.172;2023-05-10T08:18:13;4.50;;;1.58;;
15814;SDS011;8008;50.024;8.172;2023-05-10T08:20:41;2.42;;;2.00;;
15814;SDS011;8008;50.024;8.172;2023-05-10T08:23:11;3.42;;;1.80;;
15814;SDS011;8008;50.024;8.172;2023-05-10T08:25:39;2.92;;;1.60;;
15814;SDS011;8008;50.024;8.172;2023-05-10T08:28:07;3.63;;;1.77;;
15814;SDS011;8008;50.024;8.172;2023-05-10T08:30:37;4.30;;;1.70;;
15814;SDS011;8008;50.024;8.172;2023-05-10T08:33:05;3.30;;;1.75;;
15814;SDS011;8008;50.024;8.172;2023-05-10T08:35:33;8.50;;;1.88;;
15814;SDS011;8008;50.024;8.172;2023-05-10T08:38:01;4.07;;;2.25;;
15814;SDS011;8008;50.024;8.172;2023-05-10T08:40:30;3.88;;;2.45;;
15814;SDS011;8008;50.024;8.172;2023-05-10T08:42:58;2.88;;;2.35;;
15814;SDS011;8008;50.024;8.172;2023-05-10T08:45:33;8.48;;;2.78;;
15814;SDS011;8008;50.024;8.172;2023-05-10T08:48:05;4.25;;;2.10;;
15814;SDS011;8008;50.024;8.172;2023-05-10T08:50:35;4.25;;;2.10;;
15814;SDS011;8008;50.024;8.172;2023-05-10T08:53:04;4.43;;;2.22;;
15814;SDS011;8008;50.024;8.172;2023-05-10T08:55:35;4.88;;;2.33;;
15814;SDS011;8008;50.024;8.172;2023-05-10T08:58:04;3.03;;;2.15;;
15814;SDS011;8008;50.024;8.172;2023-05-10T09:00:32;2.95;;;1.88;;
15814;SDS011;8008;50.024;8.172;2023-05-10T09:03:02;3.28;;;1.80;;
15814;SDS011;8008;50.024;8.172;2023-05-10T09:05:31;3.05;;;1.45;;
15814;SDS011;8008;50.024;8.172;2023-05-10T09:07:59;1.88;;;1.33;;
15814;SDS011;8008;50.024;8.172;2023-05-10T09:10:27;2.30;;;1.20;;
15814;SDS011;8008;50.024;8.172;2023-05-10T09:12:58;2.08;;;1.25;;
15814;SDS011;8008;50.024;8.172;2023-05-10T09:15:26;3.35;;;1.38;;
15814;SDS011;8008;50.024;8.172;2023-05-10T09:17:54;1.40;;;1.20;;
15814;SDS011;8008;50.024;8.172;2023-05-10T09:20:22;2.45;;;1.00;;
15814;SDS011;8008;50.024;8.172;2023-05-10T09:22:50;1.23;;;1.08;;
15814;SDS011;8008;50.024;8.172;2023-05-10T09:25:18;4.85;;;1.63;;
15814;SDS011;8008;50.024;8.172;2023-05-10T09:27:46;2.53;;;1.33;;
15814;SDS011;8008;50.024;8.172;2023-05-10T09:30:17;2.08;;;1.30;;
15814;SDS011;8008;50.024;8.172;2023-05-10T09:32:51;2.80;;;1.35;;
15814;SDS011;8008;50.024;8.172;2023-05-10T09:35:20;3.30;;;1.30;;
15814;SDS011;8008;50.024;8.172;2023-05-10T09:37:54;2.33;;;1.55;;
15814;SDS011;8008;50.024;8.172;2023-05-10T09:40:23;3.75;;;1.33;;
15814;SDS011;8008;50.024;8.172;2023-05-10T09:42:55;2.55;;;1.50;;
15814;SDS011;8008;50.024;8.172;2023-05-10T09:45:26;1.33;;;1.20;;
15814;SDS011;8008;50.024;8.172;2023-05-10T09:47:56;1.55;;;1.30;;
15814;SDS011;8008;50.024;8.172;2023-05-10T09:50:25;1.40;;;1.30;;
15814;SDS011;8008;50.024;8.172;2023-05-10T09:52:54;1.50;;;1.00;;
15814;SDS011;8008;50.024;8.172;2023-05-10T09:55:25;1.55;;;0.80;;
15814;SDS011;8008;50.024;8.172;2023-05-10T09:58:05;2.35;;;0.90;;
15814;SDS011;8008;50.024;8.172;2023-05-10T10:00:39;0.80;;;0.80;;
15814;SDS011;8008;50.024;8.172;2023-05-10T10:03:12;1.05;;;1.00;;
15814;SDS011;8008;50.024;8.172;2023-05-10T10:05:41;1.63;;;0.95;;
15814;SDS011;8008;50.024;8.172;2023-05-10T10:08:10;0.93;;;0.75;;
15814;SDS011;8008;50.024;8.172;2023-05-10T10:10:39;0.85;;;0.70;;
15814;SDS011;8008;50.024;8.172;2023-05-10T10:13:07;0.95;;;0.85;;
15814;SDS011;8008;50.024;8.172;2023-05-10T10:15:35;0.70;;;0.70;;
15814;SDS011;8008;50.024;8.172;2023-05-10T10:18:05;1.73;;;0.70;;
15814;SDS011;8008;50.024;8.172;2023-05-10T10:20:35;0.55;;;0.55;;
15814;SDS011;8008;50.024;8.172;2023-05-10T10:23:04;0.93;;;0.80;;
15814;SDS011;8008;50.024;8.172;2023-05-10T10:25:32;0.60;;;0.60;;
15814;SDS011;8008;50.024;8.172;2023-05-10T10:28:08;0.60;;;0.60;;
15814;SDS011;8008;50.024;8.172;2023-05-10T10:30:44;0.93;;;0.60;;
15814;SDS011;8008;50.024;8.172;2023-05-10T10:33:29;1.33;;;0.80;;
15814;SDS011;8008;50.024;8.172;2023-05-10T10:36:06;0.63;;;0.60;;
15814;SDS011;8008;50.024;8.172;2023-05-10T10:41:29;1.10;;;1.00;;
15814;SDS011;8008;50.024;8.172;2023-05-10T10:47:05;0.60;;;0.60;;
15814;SDS011;8008;50.024;8.172;2023-05-10T10:49:43;2.80;;;0.65;;
15814;SDS011;8008;50.024;8.172;2023-05-10T10:52:24;1.35;;;0.80;;
15814;SDS011;8008;50.024;8.172;2023-05-10T10:54:59;0.70;;;0.70;;
15814;SDS011;8008;50.024;8.172;2023-05-10T10:57:28;1.00;;;0.90;;
15814;SDS011;8008;50.024;8.172;2023-05-10T11:02:51;1.77;;;0.80;;
15814;SDS011;8008;50.024;8.172;2023-05-10T11:05:34;0.70;;;0.70;;
15814;SDS011;8008;50.024;8.172;2023-05-10T11:08:07;1.52;;;0.73;;
15814;SDS011;8008;50.024;8.172;2023-05-10T11:10:38;0.93;;;0.80;;
15814;SDS011;8008;50.024;8.172;2023-05-10T11:13:06;1.08;;;0.80;;
15814;SDS011;8008;50.024;8.172;2023-05-10T11:15:37;1.02;;;1.02;;
15814;SDS011;8008;50.024;8.172;2023-05-10T11:18:18;1.00;;;0.70;;
15814;SDS011;8008;50.024;8.172;2023-05-10T11:20:51;0.73;;;0.73;;
15814;SDS011;8008;50.024;8.172;2023-05-10T11:23:19;0.80;;;0.80;;
15814;SDS011;8008;50.024;8.172;2023-05-10T11:25:48;0.82;;;0.73;;
15814;SDS011;8008;50.024;8.172;2023-05-10T11:28:17;0.95;;;0.80;;
15814;SDS011;8008;50.024;8.172;2023-05-10T11:30:46;1.38;;;0.70;;
15814;SDS011;8008;50.024;8.172;2023-05-10T11:33:15;0.90;;;0.90;;
15814;SDS011;8008;50.024;8.172;2023-05-10T11:35:44;1.92;;;0.75;;
15814;SDS011;8008;50.024;8.172;2023-05-10T11:38:14;0.88;;;0.88;;
15814;SDS011;8008;50.024;8.172;2023-05-10T11:40:42;1.00;;;1.00;;
15814;SDS011;8008;50.024;8.172;2023-05-10T11:43:10;1.17;;;1.00;;
15814;SDS011;8008;50.024;8.172;2023-05-10T11:45:39;0.95;;;0.95;;
15814;SDS011;8008;50.024;8.172;2023-05-10T11:48:08;0.65;;;0.65;;
15814;SDS011;8008;50.024;8.172;2023-05-10T11:50:36;0.75;;;0.75;;
15814;SDS011;8008;50.024;8.172;2023-05-10T11:53:04;0.95;;;0.80;;
15814;SDS011;8008;50.024;8.172;2023-05-10T11:55:34;0.70;;;0.70;;
15814;SDS011;8008;50.024;8.172;2023-05-10T11:58:02;0.70;;;0.70;;
15814;SDS011;8008;50.024;8.172;2023-05-10T12:00:30;1.30;;;0.75;;
15814;SDS011;8008;50.024;8.172;2023-05-10T12:03:00;0.85;;;0.85;;
15814;SDS011;8008;50.024;8.172;2023-05-10T12:05:31;1.15;;;0.73;;
15814;SDS011;8008;50.024;8.172;2023-05-10T12:08:12;0.93;;;0.77;;
15814;SDS011;8008;50.024;8.172;2023-05-10T12:10:42;1.92;;;0.85;;
15814;SDS011;8008;50.024;8.172;2023-05-10T12:13:11;0.65;;;0.52;;
15814;SDS011;8008;50.024;8.172;2023-05-10T12:15:40;0.80;;;0.80;;
15814;SDS011;8008;50.024;8.172;2023-05-10T12:18:09;1.90;;;0.70;;
15814;SDS011;8008;50.024;8.172;2023-05-10T12:20:38;2.08;;;0.75;;
15814;SDS011;8008;50.024;8.172;2023-05-10T12:23:08;1.55;;;0.55;;
15814;SDS011;8008;50.024;8.172;2023-05-10T12:25:36;1.10;;;0.68;;
15814;SDS011;8008;50.024;8.172;2023-05-10T12:28:07;0.65;;;0.60;;
15814;SDS011;8008;50.024;8.172;2023-05-10T12:30:36;3.50;;;0.90;;
15814;SDS011;8008;50.024;8.172;2023-05-10T12:33:07;0.60;;;0.60;;
15814;SDS011;8008;50.024;8.172;2023-05-10T12:35:46;0.85;;;0.60;;
15814;SDS011;8008;50.024;8.172;2023-05-10T12:38:24;0.30;;;0.30;;
15814;SDS011;8008;50.024;8.172;2023-05-10T12:40:57;0.60;;;0.60;;
15814;SDS011;8008;50.024;8.172;2023-05-10T12:43:26;1.15;;;0.50;;
15814;SDS011;8008;50.024;8.172;2023-05-10T12:45:55;1.30;;;0.50;;
15814;SDS011;8008;50.024;8.172;2023-05-10T12:48:23;0.45;;;0.45;;
15814;SDS011;8008;50.024;8.172;2023-05-10T12:50:51;0.45;;;0.45;;
15814;SDS011;8008;50.024;8.172;2023-05-10T12:53:19;0.75;;;0.55;;
15814;SDS011;8008;50.024;8.172;2023-05-10T12:55:47;0.55;;;0.40;;
15814;SDS011;8008;50.024;8.172;2023-05-10T12:58:15;0.40;;;0.40;;
15814;SDS011;8008;50.024;8.172;2023-05-10T13:01:02;0.60;;;0.60;;
15814;SDS011;8008;50.024;8.172;2023-05-10T13:03:31;0.50;;;0.50;;
15814;SDS011;8008;50.024;8.172;2023-05-10T13:05:59;0.77;;;0.60;;
15814;SDS011;8008;50.024;8.172;2023-05-10T13:08:27;2.58;;;0.80;;
15814;SDS011;8008;50.024;8.172;2023-05-10T13:10:59;0.77;;;0.55;;
15814;SDS011;8008;50.024;8.172;2023-05-10T13:13:27;0.73;;;0.50;;
15814;SDS011;8008;50.024;8.172;2023-05-10T13:15:55;0.45;;;0.45;;
15814;SDS011;8008;50.024;8.172;2023-05-10T13:18:25;1.25;;;0.50;;
15814;SDS011;8008;50.024;8.172;2023-05-10T13:20:53;2.03;;;0.57;;
15814;SDS011;8008;50.024;8.172;2023-05-10T13:23:22;1.40;;;0.68;;
15814;SDS011;8008;50.024;8.172;2023-05-10T13:25:49;1.65;;;0.55;;
15814;SDS011;8008;50.024;8.172;2023-05-10T13:28:17;0.95;;;0.70;;
15814;SDS011;8008;50.024;8.172;2023-05-10T13:30:45;0.85;;;0.70;;
15814;SDS011;8008;50.024;8.172;2023-05-10T13:33:13;0.60;;;0.60;;
15814;SDS011;8008;50.024;8.172;2023-05-10T13:35:43;0.88;;;0.60;;
15814;SDS011;8008;50.024;8.172;2023-05-10T13:38:12;0.50;;;0.50;;
15814;SDS011;8008;50.024;8.172;2023-05-10T13:40:44;1.65;;;0.60;;
15814;SDS011;8008;50.024;8.172;2023-05-10T13:43:12;1.17;;;0.85;;
15814;SDS011;8008;50.024;8.172;2023-05-10T13:45:41;0.85;;;0.80;;
15814;SDS011;8008;50.024;8.172;2023-05-10T13:48:09;1.23;;;0.80;;
15814;SDS011;8008;50.024;8.172;2023-05-10T13:50:37;1.10;;;0.90;;
15814;SDS011;8008;50.024;8.172;2023-05-10T13:53:06;1.05;;;1.00;;
15814;SDS011;8008;50.024;8.172;2023-05-10T13:55:34;2.15;;;0.85;;
15814;SDS011;8008;50.024;8.172;2023-05-10T13:58:02;1.65;;;0.75;;
15814;SDS011;8008;50.024;8.172;2023-05-10T14:00:30;1.77;;;0.90;;
15814;SDS011;8008;50.024;8.172;2023-05-10T14:02:58;1.25;;;0.73;;
15814;SDS011;8008;50.024;8.172;2023-05-10T14:05:26;0.85;;;0.80;;
15814;SDS011;8008;50.024;8.172;2023-05-10T14:07:55;0.80;;;0.80;;
15814;SDS011;8008;50.024;8.172;2023-05-10T14:10:24;1.17;;;0.90;;
15814;SDS011;8008;50.024;8.172;2023-05-10T14:12:52;1.60;;;0.90;;
15814;SDS011;8008;50.024;8.172;2023-05-10T14:15:20;2.13;;;0.80;;
15814;SDS011;8008;50.024;8.172;2023-05-10T14:17:48;1.48;;;0.90;;
15814;SDS011;8008;50.024;8.172;2023-05-10T14:20:16;2.35;;;0.95;;
15814;SDS011;8008;50.024;8.172;2023-05-10T14:22:44;2.17;;;0.95;;
15814;SDS011;8008;50.024;8.172;2023-05-10T14:25:12;1.48;;;0.90;;
15814;SDS011;8008;50.024;8.172;2023-05-10T14:27:42;0.90;;;0.90;;
15814;SDS011;8008;50.024;8.172;2023-05-10T14:30:10;1.33;;;0.90;;
15814;SDS011;8008;50.024;8.172;2023-05-10T14:32:39;1.27;;;1.00;;
15814;SDS011;8008;50.024;8.172;2023-05-10T14:35:07;0.93;;;0.93;;
15814;SDS011;8008;50.024;8.172;2023-05-10T14:37:38;1.02;;;0.90;;
15814;SDS011;8008;50.024;8.172;2023-05-10T14:40:07;1.50;;;1.13;;
15814;SDS011;8008;50.024;8.172;2023-05-10T14:42:36;1.60;;;1.00;;
15814;SDS011;8008;50.024;8.172;2023-05-10T14:45:06;1.25;;;1.10;;
15814;SDS011;8008;50.024;8.172;2023-05-10T14:47:34;1.20;;;1.10;;
15814;SDS011;8008;50.024;8.172;2023-05-10T14:50:03;2.30;;;0.90;;
15814;SDS011;8008;50.024;8.172;2023-05-10T14:52:31;1.00;;;1.00;;
15814;SDS011;8008;50.024;8.172;2023-05-10T14:54:59;1.70;;;1.10;;
15814;SDS011;8008;50.024;8.172;2023-05-10T14:57:28;1.20;;;1.10;;
15814;SDS011;8008;50.024;8.172;2023-05-10T14:59:56;1.35;;;1.00;;
15814;SDS011;8008;50.024;8.172;2023-05-10T15:02:26;1.08;;;1.08;;
15814;SDS011;8008;50.024;8.172;2023-05-10T15:04:57;1.15;;;1.05;;
15814;SDS011;8008;50.024;8.172;2023-05-10T15:07:26;1.38;;;1.23;;
15814;SDS011;8008;50.024;8.172;2023-05-10T15:09:54;1.23;;;1.15;;
15814;SDS011;8008;50.024;8.172;2023-05-10T15:12:22;2.97;;;1.45;;
15814;SDS011;8008;50.024;8.172;2023-05-10T15:14:50;1.88;;;0.98;;
15814;SDS011;8008;50.024;8.172;2023-05-10T15:17:17;2.97;;;1.23;;
15814;SDS011;8008;50.024;8.172;2023-05-10T15:19:47;1.77;;;1.10;;
15814;SDS011;8008;50.024;8.172;2023-05-10T15:22:15;1.65;;;1.30;;
15814;SDS011;8008;50.024;8.172;2023-05-10T15:24:43;2.08;;;1.30;;
15814;SDS011;8008;50.024;8.172;2023-05-10T15:27:11;2.90;;;1.40;;
15814;SDS011;8008;50.024;8.172;2023-05-10T15:29:38;2.75;;;1.20;;
15814;SDS011;8008;50.024;8.172;2023-05-10T15:32:06;3.88;;;2.28;;
15814;SDS011;8008;50.024;8.172;2023-05-10T15:34:34;1.58;;;1.30;;
15814;SDS011;8008;50.024;8.172;2023-05-10T15:37:04;1.40;;;1.30;;
15814;SDS011;8008;50.024;8.172;2023-05-10T15:39:32;2.80;;;1.33;;
15814;SDS011;8008;50.024;8.172;2023-05-10T15:42:00;3.90;;;1.30;;
15814;SDS011;8008;50.024;8.172;2023-05-10T15:44:29;1.90;;;1.42;;
15814;SDS011;8008;50.024;8.172;2023-05-10T15:46:57;3.08;;;1.23;;
15814;SDS011;8008;50.024;8.172;2023-05-10T15:49:25;1.75;;;1.33;;
15814;SDS011;8008;50.024;8.172;2023-05-10T15:51:53;1.85;;;1.35;;
15814;SDS011;8008;50.024;8.172;2023-05-10T15:54:22;2.65;;;1.40;;
15814;SDS011;8008;50.024;8.172;2023-05-10T15:56:50;1.40;;;1.30;;
15814;SDS011;8008;50.024;8.172;2023-05-10T15:59:20;1.60;;;1.17;;
15814;SDS011;8008;50.024;8.172;2023-05-10T16:01:48;4.22;;;1.30;;
15814;SDS011;8008;50.024;8.172;2023-05-10T16:04:16;2.78;;;1.02;;
15814;SDS011;8008;50.024;8.172;2023-05-10T16:06:44;2.22;;;1.35;;
15814;SDS011;8008;50.024;8.172;2023-05-10T16:09:12;1.48;;;1.35;;
15814;SDS011;8008;50.024;8.172;2023-05-10T16:11:42;2.08;;;1.10;;
15814;SDS011;8008;50.024;8.172;2023-05-10T16:14:10;3.42;;;1.20;;
15814;SDS011;8008;50.024;8.172;2023-05-10T16:16:38;3.42;;;1.70;;
15814;SDS011;8008;50.024;8.172;2023-05-10T16:19:06;3.15;;;2.10;;
15814;SDS011;8008;50.024;8.172;2023-05-10T16:21:34;2.17;;;1.40;;
15814;SDS011;8008;50.024;8.172;2023-05-10T16:24:03;4.45;;;1.60;;
15814;SDS011;8008;50.024;8.172;2023-05-10T16:26:31;2.13;;;1.33;;
15814;SDS011;8008;50.024;8.172;2023-05-10T16:29:03;2.30;;;1.50;;
15814;SDS011;8008;50.024;8.172;2023-05-10T16:31:31;2.38;;;1.40;;
15814;SDS011;8008;50.024;8.172;2023-05-10T16:33:58;2.10;;;1.38;;
15814;SDS011;8008;50.024;8.172;2023-05-10T16:36:26;2.08;;;1.52;;
15814;SDS011;8008;50.024;8.172;2023-05-10T16:38:54;3.22;;;1.75;;
15814;SDS011;8008;50.024;8.172;2023-05-10T16:41:22;2.70;;;2.00;;
15814;SDS011;8008;50.024;8.172;2023-05-10T16:43:51;4.10;;;2.20;;
15814;SDS011;8008;50.024;8.172;2023-05-10T16:46:20;4.07;;;2.00;;
15814;SDS011;8008;50.024;8.172;2023-05-10T16:48:48;2.80;;;2.15;;
15814;SDS011;8008;50.024;8.172;2023-05-10T16:51:16;3.55;;;2.10;;
15814;SDS011;8008;50.024;8.172;2023-05-10T16:53:44;4.35;;;2.25;;
15814;SDS011;8008;50.024;8.172;2023-05-10T16:56:12;2.85;;;1.98;;
15814;SDS011;8008;50.024;8.172;2023-05-10T16:58:40;3.60;;;2.22;;
15814;SDS011;8008;50.024;8.172;2023-05-10T17:01:08;3.42;;;2.25;;
15814;SDS011;8008;50.024;8.172;2023-05-10T17:03:37;4.22;;;2.40;;
15814;SDS011;8008;50.024;8.172;2023-05-10T17:06:05;2.88;;;2.22;;
15814;SDS011;8008;50.024;8.172;2023-05-10T17:08:34;2.72;;;1.23;;
15814;SDS011;8008;50.024;8.172;2023-05-10T17:11:01;1.20;;;1.10;;
15814;SDS011;8008;50.024;8.172;2023-05-10T17:13:30;2.35;;;1.25;;
15814;SDS011;8008;50.024;8.172;2023-05-10T17:15:59;2.85;;;1.20;;
15814;SDS011;8008;50.024;8.172;2023-05-10T17:18:28;2.03;;;1.27;;
15814;SDS011;8008;50.024;8.172;2023-05-10T17:20:58;1.83;;;1.10;;
15814;SDS011;8008;50.024;8.172;2023-05-10T17:23:26;2.55;;;1.30;;
15814;SDS011;8008;50.024;8.172;2023-05-10T17:25:54;1.75;;;1.25;;
15814;SDS011;8008;50.024;8.172;2023-05-10T17:28:24;1.10;;;0.90;;
15814;SDS011;8008;50.024;8.172;2023-05-10T17:30:55;1.60;;;1.00;;
15814;SDS011;8008;50.024;8.172;2023-05-10T17:33:23;2.67;;;1.30;;
15814;SDS011;8008;50.024;8.172;2023-05-10T17:35:51;2.10;;;1.40;;
15814;SDS011;8008;50.024;8.172;2023-05-10T17:38:21;2.13;;;1.20;;
15814;SDS011;8008;50.024;8.172;2023-05-10T17:40:49;1.75;;;1.00;;
15814;SDS011;8008;50.024;8.172;2023-05-10T17:43:17;1.38;;;0.90;;
15814;SDS011;8008;50.024;8.172;2023-05-10T17:45:46;2.30;;;1.30;;
15814;SDS011;8008;50.024;8.172;2023-05-10T17:48:15;1.60;;;1.10;;
15814;SDS011;8008;50.024;8.172;2023-05-10T17:50:43;3.15;;;1.20;;
15814;SDS011;8008;50.024;8.172;2023-05-10T17:53:11;3.42;;;1.20;;
15814;SDS011;8008;50.024;8.172;2023-05-10T17:55:40;2.05;;;1.30;;
15814;SDS011;8008;50.024;8.172;2023-05-10T17:58:09;1.65;;;1.50;;
15814;SDS011;8008;50.024;8.172;2023-05-10T18:00:38;3.92;;;2.38;;
15814;SDS011;8008;50.024;8.172;2023-05-10T18:03:06;8.45;;;3.72;;
15814;SDS011;8008;50.024;8.172;2023-05-10T18:05:34;7.75;;;3.20;;
15814;SDS011;8008;50.024;8.172;2023-05-10T18:08:03;2.58;;;2.10;;
15814;SDS011;8008;50.024;8.172;2023-05-10T18:10:32;3.85;;;1.65;;
15814;SDS011;8008;50.024;8.172;2023-05-10T18:13:01;2.03;;;1.50;;
15814;SDS011;8008;50.024;8.172;2023-05-10T18:15:33;2.67;;;1.92;;
15814;SDS011;8008;50.024;8.172;2023-05-10T18:18:01;3.35;;;1.60;;
15814;SDS011;8008;50.024;8.172;2023-05-10T18:20:30;1.35;;;1.10;;